»·PEaware :: N8116Q KMRY-KOAK

N8116Q :: KMRY-KOAK

FLIGHT INFORMATION

Flight Status: Arrived
Operator: Privately registered:
United States
More flights under this callsign
Pilot: Julio S. (28535)
Aircraft: Unknown
(P28U)
More flights by this aircraft type
Origin: KMRY Monterey Peninsula
United States
Destination: KOAK Metro Oakland Intl
United States
More flights between these airports :: More routes between these airports
Route: SNS V111 KARNN V301 SUNOL
File this flight plan on PilotEdge
Remarks:
Altitude:
(Current/Filed)
8,000ft
Speed:
(Current/Filed)
133kts
Departed: 31-Dec-20 04:05 PM
Arrived: 31-Dec-20 05:34 PM
Distance/Time
Traveled:
71nm/1:28
Distance/Time
To Go:
Arrived

Flight Plot

Page will automatically refresh every two minutes.

Flight plan parsing failed; only flown route is shown


Map Options




Map Legend


Flown Route
Filed Route
Departure Airport
Arrival Airport
Navaid (VOR, NDB)
Fix

Horizontal Profiles

Position Reports

Time Latitude Longitude Heading Altitude Ground
Speed
31-Dec-20 15:39 36.588273 -121.852181 22 173ft 0kts
31-Dec-20 15:40 36.588273 -121.852181 22 173ft 0kts
31-Dec-20 15:41 36.588273 -121.852181 22 173ft 0kts
31-Dec-20 15:43 36.588273 -121.852181 22 173ft 0kts
31-Dec-20 15:43 36.588273 -121.852181 22 173ft 0kts
31-Dec-20 15:44 36.588273 -121.852181 22 173ft 0kts
31-Dec-20 15:45 36.588273 -121.852181 22 173ft 0kts
31-Dec-20 15:46 36.588273 -121.852181 22 173ft 0kts
31-Dec-20 15:47 36.588273 -121.852181 22 173ft 0kts
31-Dec-20 15:48 36.588273 -121.852181 22 173ft 0kts
31-Dec-20 15:49 36.588273 -121.852181 22 173ft 0kts
31-Dec-20 15:50 36.588273 -121.852181 22 173ft 0kts
31-Dec-20 15:51 36.588273 -121.852181 22 173ft 0kts
31-Dec-20 15:52 36.588273 -121.852181 22 173ft 0kts
31-Dec-20 15:53 36.588273 -121.852181 22 173ft 0kts
31-Dec-20 15:54 36.588273 -121.852181 22 173ft 0kts
31-Dec-20 15:55 36.587845 -121.849430 108 179ft 20kts
31-Dec-20 15:56 36.585934 -121.844144 122 209ft 11kts
31-Dec-20 15:57 36.585124 -121.841741 113 228ft 13kts
31-Dec-20 15:58 36.583754 -121.837671 115 246ft 21kts
31-Dec-20 15:59 36.582841 -121.834877 106 234ft 0kts
31-Dec-20 16:00 36.582841 -121.834877 106 234ft 0kts
31-Dec-20 16:01 36.582841 -121.834876 106 234ft 0kts
31-Dec-20 16:02 36.582841 -121.834877 106 234ft 0kts
31-Dec-20 16:03 36.582830 -121.834832 105 234ft 4kts
31-Dec-20 16:04 36.585579 -121.840513 289 297ft 78kts
31-Dec-20 16:05 36.592681 -121.857907 295 1037ft 75kts
31-Dec-20 16:06 36.607023 -121.863920 335 1707ft 76kts
31-Dec-20 16:07 36.622078 -121.868430 344 2754ft 73kts
31-Dec-20 16:08 36.636787 -121.858304 29 3504ft 102kts
31-Dec-20 16:09 36.643181 -121.838995 72 4431ft 97kts
31-Dec-20 16:10 36.644767 -121.820204 66 5192ft 94kts
31-Dec-20 16:11 36.641524 -121.799609 86 5903ft 101kts
31-Dec-20 16:12 36.640266 -121.779103 78 6499ft 108kts
31-Dec-20 16:13 36.641165 -121.757907 68 7111ft 106kts
31-Dec-20 16:14 36.643255 -121.737954 64 7736ft 104kts
31-Dec-20 16:15 36.646299 -121.716851 66 7966ft 132kts
31-Dec-20 16:16 36.650011 -121.690636 68 7948ft 140kts
31-Dec-20 16:17 36.655227 -121.656432 67 7946ft 142kts
31-Dec-20 16:18 36.660722 -121.622169 67 7946ft 142kts
31-Dec-20 16:19 36.673301 -121.600387 23 7945ft 120kts
31-Dec-20 16:20 36.691755 -121.586207 20 7946ft 119kts
31-Dec-20 16:21 36.712476 -121.571716 19 7946ft 121kts
31-Dec-20 16:22 36.732992 -121.557848 19 7945ft 121kts
31-Dec-20 16:23 36.752350 -121.544942 19 7945ft 121kts
31-Dec-20 16:24 36.770655 -121.532791 19 7945ft 120kts
31-Dec-20 16:25 36.789051 -121.520614 19 7945ft 120kts
31-Dec-20 16:26 36.811025 -121.506056 19 7944ft 119kts
31-Dec-20 16:27 36.837931 -121.488252 19 7945ft 120kts
31-Dec-20 16:28 36.874855 -121.463784 19 7944ft 120kts
31-Dec-20 16:29 36.907916 -121.441856 19 7944ft 119kts
31-Dec-20 16:30 36.927229 -121.429030 19 7944ft 118kts
31-Dec-20 16:31 36.946907 -121.415955 19 7944ft 119kts
31-Dec-20 16:32 36.967377 -121.402249 20 7943ft 118kts
31-Dec-20 16:33 36.989179 -121.387450 19 7944ft 120kts
31-Dec-20 16:34 37.011814 -121.372279 19 7943ft 120kts
31-Dec-20 16:35 37.035139 -121.356678 19 7960ft 120kts
31-Dec-20 16:36 37.057592 -121.341704 19 7960ft 121kts
31-Dec-20 16:37 37.078562 -121.327741 20 7960ft 122kts
31-Dec-20 16:38 37.099683 -121.313644 20 7960ft 122kts
31-Dec-20 16:39 37.118113 -121.301343 20 7966ft 124kts
31-Dec-20 16:40 37.137347 -121.288478 20 7964ft 124kts
31-Dec-20 16:41 37.157872 -121.293022 327 7961ft 115kts
31-Dec-20 16:42 37.177707 -121.312212 323 7961ft 116kts
31-Dec-20 16:43 37.199219 -121.335652 321 7963ft 116kts
31-Dec-20 16:45 37.213366 -121.351706 321 7964ft 116kts
31-Dec-20 16:46 37.227379 -121.367812 320 7968ft 116kts
31-Dec-20 16:47 37.241517 -121.384185 320 7972ft 117kts
31-Dec-20 16:48 37.255730 -121.400649 320 7976ft 117kts
31-Dec-20 16:49 37.269897 -121.417109 320 7982ft 117kts
31-Dec-20 16:50 37.284576 -121.434207 320 7988ft 117kts
31-Dec-20 16:51 37.298787 -121.450781 320 7989ft 118kts
31-Dec-20 16:52 37.313029 -121.467402 320 7987ft 118kts
31-Dec-20 16:53 37.326970 -121.483668 320 7985ft 118kts
31-Dec-20 16:54 37.340763 -121.499783 320 7984ft 117kts
31-Dec-20 16:55 37.354415 -121.515734 320 7983ft 117kts
31-Dec-20 16:56 37.368176 -121.531825 320 7982ft 117kts
31-Dec-20 16:57 37.379957 -121.550228 311 7989ft 116kts
31-Dec-20 16:58 37.391271 -121.569537 311 7904ft 116kts
31-Dec-20 16:58 37.402638 -121.589082 311 7790ft 117kts
31-Dec-20 17:00 37.416158 -121.612391 310 7548ft 122kts
31-Dec-20 17:01 37.427472 -121.631992 310 7417ft 122kts
31-Dec-20 17:02 37.439394 -121.652567 309 7085ft 126kts
31-Dec-20 17:02 37.449337 -121.669812 309 6868ft 126kts
31-Dec-20 17:03 37.461172 -121.690345 309 6612ft 126kts
31-Dec-20 17:04 37.473008 -121.710858 308 6361ft 126kts
31-Dec-20 17:05 37.484720 -121.731199 309 6113ft 126kts
31-Dec-20 17:06 37.496181 -121.751122 309 6020ft 118kts
31-Dec-20 17:07 37.509079 -121.773437 309 6019ft 117kts
31-Dec-20 17:08 37.520245 -121.792591 309 5917ft 121kts
31-Dec-20 17:09 37.532319 -121.813529 308 5770ft 122kts
31-Dec-20 17:10 37.543198 -121.832502 308 5601ft 125kts
31-Dec-20 17:11 37.554678 -121.852468 308 5345ft 128kts
31-Dec-20 17:12 37.566061 -121.872318 307 5084ft 128kts
31-Dec-20 17:13 37.569658 -121.896755 278 4850ft 128kts
31-Dec-20 17:14 37.569422 -121.919206 271 4852ft 125kts
31-Dec-20 17:15 37.568077 -121.941196 272 4853ft 126kts
31-Dec-20 17:16 37.567974 -121.963694 276 4857ft 128kts
31-Dec-20 17:17 37.568183 -121.987195 276 4767ft 128kts
31-Dec-20 17:18 37.570904 -122.009622 290 4175ft 130kts
31-Dec-20 17:19 37.579211 -122.029950 303 3724ft 113kts
31-Dec-20 17:20 37.588330 -122.045973 306 3549ft 97kts
31-Dec-20 17:21 37.597667 -122.060245 308 3333ft 105kts
31-Dec-20 17:22 37.608875 -122.075563 312 2864ft 114kts
31-Dec-20 17:23 37.620613 -122.091190 309 2482ft 113kts
31-Dec-20 17:24 37.630025 -122.106767 302 2136ft 85kts
31-Dec-20 17:25 37.638518 -122.119638 302 1944ft 82kts
31-Dec-20 17:26 37.647055 -122.132589 303 1769ft 88kts
31-Dec-20 17:27 37.656455 -122.147302 307 1411ft 91kts
31-Dec-20 17:28 37.666571 -122.161728 304 1122ft 91kts
31-Dec-20 17:29 37.676255 -122.176323 304 842ft 81kts
31-Dec-20 17:30 37.684565 -122.188768 304 549ft 78kts
31-Dec-20 17:31 37.692514 -122.200898 305 350ft 75kts
31-Dec-20 17:32 37.699908 -122.211915 305 114ft 71kts
31-Dec-20 17:33 37.705503 -122.220195 308 6ft 36kts
31-Dec-20 17:34 37.708957 -122.225260 327 6ft 33kts
31-Dec-20 17:35 37.712928 -122.223949 47 6ft 36kts
31-Dec-20 17:36 37.715068 -122.219266 48 7ft 35kts
31-Dec-20 17:37 37.718212 -122.214853 47 6ft 35kts
31-Dec-20 17:38 37.720786 -122.209700 67 7ft 36kts
31-Dec-20 17:39 37.723815 -122.205332 21 7ft 34kts
31-Dec-20 17:40 37.726541 -122.205624 327 6ft 0kts
31-Dec-20 17:41 37.726541 -122.205624 327 6ft 0kts

Navigation Log

Ident Type
Flight plan parsing failed, navigation log unavailable